Nyk Constellation — V7NP4 — position and weather

sailwx.info

Track history (hours):
 
Tides and Currents Weather Stations Pressure Air Temp Water Temp Dewpoint Dewpoint Depression Visibility Wind Speed Wind Dir Waves Ship Positions

Nyk Constellation

Last reported at 2015-Sep-03 14:33 UTC. Time now 2015-Sep-03 17:11 UTC.
Position N 35°50' W 075°10'.

Length 294 m; draft 11.8 m.

Type: Ship. MMSI: 538002992.

Date/timePositionNaut miles runAvg speedWind from/ knotsBaromVisibWave heightAir tempDewpointWater temp
2015-Sep-03 14:33N 35°50' W 075°10'1413.9
2015-Sep-03 13:33N 36°04' W 075°13'1414.3
2015-Sep-03 12:33N 36°16' W 075°21'1515.2
2015-Sep-03 11:33N 36°30' W 075°30'1413.8
2015-Sep-03 10:33N 36°42' W 075°38'1514.7
2015-Sep-03 09:33N 36°51' W 075°52'1313.1
2015-Sep-03 08:34N 36°58' W 076°06'46 3.1
2015-Sep-02 17:32N 37°09' W 075°09'1717.3
2015-Sep-02 16:33N 37°23' W 074°57'2019.3
2015-Sep-02 15:31N 37°39' W 074°42'1919.3
2015-Sep-02 14:33N 37°54' W 074°29'1616.5
2015-Sep-02 13:34N 38°08' W 074°17'1716.9
2015-Sep-02 12:34N 38°22' W 074°06'1716.9
2015-Sep-02 11:34N 38°39' W 074°01'1717.3
2015-Sep-02 10:33N 38°56' W 073°56'1616.2
2015-Sep-02 09:33N 39°11' W 073°51'1515.0
2015-Sep-02 08:33N 39°26' W 073°49'1817.7
2015-Sep-02 07:33N 39°44' W 073°49'2121.3
2015-Sep-02 06:33N 40°05' W 073°49'1413.7
2015-Sep-02 05:33N 40°19' W 073°49'1110.7
2015-Sep-02 04:33N 40°29' W 073°54'1313.2
2015-Sep-02 03:33N 40°39' W 074°06'4 3.9
2015-Sep-02 02:33N 40°39' W 074°11'0 0.3
2015-Sep-02 01:31N 40°39' W 074°11'0 0.0
2015-Sep-02 00:31N 40°39' W 074°11'0 0.0
2015-Sep-01 23:32N 40°39' W 074°11'0 0.0
2015-Sep-01 22:31N 40°39' W 074°11'0 0.0
2015-Sep-01 21:31N 40°39' W 074°11'0 0.0
2015-Sep-01 20:31N 40°39' W 074°11'0 0.0
2015-Sep-01 19:31N 40°39' W 074°11'0 0.0
2015-Sep-01 18:31N 40°39' W 074°11'0 0.0
2015-Sep-01 17:31N 40°39' W 074°11'0 0.0
2015-Sep-01 16:31N 40°39' W 074°11'0 0.0
2015-Sep-01 15:31N 40°39' W 074°11'0 0.0
2015-Sep-01 14:31N 40°39' W 074°11'5 5.6
2015-Sep-01 13:34N 40°39' W 074°04'1110.8
2015-Sep-01 12:33N 40°30' W 073°56'9 9.2
2015-Sep-01 11:33N 40°28' W 073°45'9 8.7
2015-Sep-01 10:31N 40°28' W 073°33'7 7.2
2015-Sep-01 09:33N 40°29' W 073°24'1111.2
2015-Sep-01 08:32N 40°29' W 073°09'1211.8
2015-Sep-01 07:33N 40°29' W 072°53'1312.8
2015-Sep-01 06:33N 40°30' W 072°37'1212.0
2015-Sep-01 05:33N 40°30' W 072°21'1312.8
2015-Sep-01 04:33N 40°30' W 072°04'1312.7
2015-Sep-01 03:33N 40°30' W 071°48'1312.6
2015-Sep-01 02:33N 40°31' W 071°31'1312.7
2015-Sep-01 01:33N 40°33' W 071°14'1313.0
2015-Sep-01 00:33N 40°33' W 070°57'1313.3
2015-Aug-31 23:33N 40°33' W 070°40'1313.1
2015-Aug-31 22:33N 40°33' W 070°23'1313.4
2015-Aug-31 21:34N 40°33' W 070°05'1413.7
2015-Aug-31 20:34N 40°33' W 069°47'1313.3
2015-Aug-31 19:33N 40°34' W 069°30'1814.3
2015-Aug-31 18:18N 40°36' W 069°06'1215.4
2015-Aug-31 17:30N 40°39' W 068°50'1515.4
2015-Aug-31 16:32N 40°43' W 068°31'1715.9
2015-Aug-31 15:29N 40°49' W 068°11'  
Track history (hours):
 
Tides and Currents Weather Stations Pressure Air Temp Water Temp Dewpoint Dewpoint Depression Visibility Wind Speed Wind Dir Waves Ship Positions

Nyk Constellation

Last reported at 2015-Sep-03 14:33 UTC. Time now 2015-Sep-03 17:11 UTC.
Position N 35°50' W 075°10'.

Length 294 m; draft 11.8 m.

Type: Ship. MMSI: 538002992.

Date/timePositionNaut miles runAvg speedWind from/ knotsBaromVisibWave heightAir tempDewpointWater temp
2015-Sep-03 14:33N 35°50' W 075°10'1413.9
2015-Sep-03 13:33N 36°04' W 075°13'1414.3
2015-Sep-03 12:33N 36°16' W 075°21'1515.2
2015-Sep-03 11:33N 36°30' W 075°30'1413.8
2015-Sep-03 10:33N 36°42' W 075°38'1514.7
2015-Sep-03 09:33N 36°51' W 075°52'1313.1
2015-Sep-03 08:34N 36°58' W 076°06'46 3.1
2015-Sep-02 17:32N 37°09' W 075°09'1717.3
2015-Sep-02 16:33N 37°23' W 074°57'2019.3
2015-Sep-02 15:31N 37°39' W 074°42'1919.3
2015-Sep-02 14:33N 37°54' W 074°29'1616.5
2015-Sep-02 13:34N 38°08' W 074°17'1716.9
2015-Sep-02 12:34N 38°22' W 074°06'1716.9
2015-Sep-02 11:34N 38°39' W 074°01'1717.3
2015-Sep-02 10:33N 38°56' W 073°56'1616.2
2015-Sep-02 09:33N 39°11' W 073°51'1515.0
2015-Sep-02 08:33N 39°26' W 073°49'1817.7
2015-Sep-02 07:33N 39°44' W 073°49'2121.3
2015-Sep-02 06:33N 40°05' W 073°49'1413.7
2015-Sep-02 05:33N 40°19' W 073°49'1110.7
2015-Sep-02 04:33N 40°29' W 073°54'1313.2
2015-Sep-02 03:33N 40°39' W 074°06'4 3.9
2015-Sep-02 02:33N 40°39' W 074°11'0 0.3
2015-Sep-02 01:31N 40°39' W 074°11'0 0.0
2015-Sep-02 00:31N 40°39' W 074°11'0 0.0
2015-Sep-01 23:32N 40°39' W 074°11'0 0.0
2015-Sep-01 22:31N 40°39' W 074°11'0 0.0
2015-Sep-01 21:31N 40°39' W 074°11'0 0.0
2015-Sep-01 20:31N 40°39' W 074°11'0 0.0
2015-Sep-01 19:31N 40°39' W 074°11'0 0.0
2015-Sep-01 18:31N 40°39' W 074°11'0 0.0
2015-Sep-01 17:31N 40°39' W 074°11'0 0.0
2015-Sep-01 16:31N 40°39' W 074°11'0 0.0
2015-Sep-01 15:31N 40°39' W 074°11'0 0.0
2015-Sep-01 14:31N 40°39' W 074°11'5 5.6
2015-Sep-01 13:34N 40°39' W 074°04'1110.8
2015-Sep-01 12:33N 40°30' W 073°56'9 9.2
2015-Sep-01 11:33N 40°28' W 073°45'9 8.7
2015-Sep-01 10:31N 40°28' W 073°33'7 7.2
2015-Sep-01 09:33N 40°29' W 073°24'1111.2
2015-Sep-01 08:32N 40°29' W 073°09'1211.8
2015-Sep-01 07:33N 40°29' W 072°53'1312.8
2015-Sep-01 06:33N 40°30' W 072°37'1212.0
2015-Sep-01 05:33N 40°30' W 072°21'1312.8
2015-Sep-01 04:33N 40°30' W 072°04'1312.7
2015-Sep-01 03:33N 40°30' W 071°48'1312.6
2015-Sep-01 02:33N 40°31' W 071°31'1312.7
2015-Sep-01 01:33N 40°33' W 071°14'1313.0
2015-Sep-01 00:33N 40°33' W 070°57'1313.3
2015-Aug-31 23:33N 40°33' W 070°40'1313.1
2015-Aug-31 22:33N 40°33' W 070°23'1313.4
2015-Aug-31 21:34N 40°33' W 070°05'1413.7
2015-Aug-31 20:34N 40°33' W 069°47'1313.3
2015-Aug-31 19:33N 40°34' W 069°30'1814.3
2015-Aug-31 18:18N 40°36' W 069°06'1215.4
2015-Aug-31 17:30N 40°39' W 068°50'1515.4
2015-Aug-31 16:32N 40°43' W 068°31'1715.9
2015-Aug-31 15:29N 40°49' W 068°11'  

Dump ship's entire track history